Time;durP1;ratioP1;P1;durP2;ratioP2;P2;SDS_P1;SDS_P2;PMS_P1;PMS_P2;Temp;Humidity;BMP_temperature;BMP_pressure;BME280_temperature;BME280_humidity;BME280_pressure;Samples;Min_cycle;Max_cycle;Signal;HPM_P1;HPM_P2
2021/04/01 00:00:00;;;;;;;14.70;6.90;;;17.40;73.00;;;;;;11933957;28;20720;-77
2021/04/01 00:05:48;;;;;;;19.13;7.13;;;17.30;73.50;;;;;;11933394;28;20092;-76
2021/04/01 00:11:37;;;;;;;15.30;6.78;;;17.20;73.40;;;;;;11933415;28;20073;-77
2021/04/01 00:17:23;;;;;;;17.98;6.20;;;17.20;73.60;;;;;;11933788;28;20125;-76
2021/04/01 00:23:11;;;;;;;15.27;6.40;;;17.00;73.70;;;;;;11936002;28;20386;-77
2021/04/01 00:28:57;;;;;;;13.63;6.00;;;17.00;74.30;;;;;;11924798;28;20061;-77
2021/04/01 00:34:44;;;;;;;11.30;5.72;;;16.90;74.30;;;;;;11926847;28;21911;-76
2021/04/01 00:40:31;;;;;;;16.48;6.13;;;16.90;73.80;;;;;;11921134;28;20053;-77
2021/04/01 00:46:17;;;;;;;15.07;6.28;;;16.80;74.00;;;;;;11929456;28;20401;-77
2021/04/01 00:52:05;;;;;;;16.63;6.40;;;16.80;74.40;;;;;;11925703;28;20046;-77
2021/04/01 00:57:54;;;;;;;21.15;7.35;;;16.80;74.50;;;;;;11926259;28;20114;-77
2021/04/01 01:03:41;;;;;;;14.50;6.50;;;16.70;74.40;;;;;;11928685;28;20057;-76
2021/04/01 01:09:28;;;;;;;25.98;6.88;;;16.70;74.40;;;;;;11930379;28;20528;-77
2021/04/01 01:15:16;;;;;;;17.98;5.88;;;16.60;74.70;;;;;;11927510;28;20041;-77
2021/04/01 01:21:03;;;;;;;10.63;6.07;;;16.40;75.10;;;;;;11927996;28;20058;-77
2021/04/01 01:26:50;;;;;;;10.90;5.65;;;16.30;74.90;;;;;;11927705;28;20057;-77
2021/04/01 01:32:37;;;;;;;15.98;6.78;;;16.40;74.90;;;;;;11926232;28;20536;-78
2021/04/01 01:38:24;;;;;;;26.90;6.80;;;16.30;75.70;;;;;;11937671;28;20094;-85
2021/04/01 01:44:11;;;;;;;15.23;6.30;;;16.30;75.60;;;;;;11946874;28;20048;-84
2021/04/01 01:50:11;;;;;;;15.38;6.00;;;16.30;75.00;;;;;;11949062;28;20123;-85
2021/04/01 01:56:00;;;;;;;24.60;6.35;;;16.40;75.10;;;;;;11946871;28;20508;-85
2021/04/01 02:01:51;;;;;;;15.60;5.78;;;16.30;74.90;;;;;;11948141;28;20060;-85
2021/04/01 02:07:37;;;;;;;11.38;5.20;;;16.20;75.40;;;;;;11934429;28;20099;-77
2021/04/01 02:13:24;;;;;;;15.80;5.95;;;16.10;75.80;;;;;;11924293;28;20045;-76
2021/04/01 02:19:11;;;;;;;13.70;5.93;;;16.00;76.40;;;;;;11937236;28;20069;-77
2021/04/01 02:24:58;;;;;;;18.40;5.32;;;16.00;76.40;;;;;;11935612;28;20509;-76
2021/04/01 02:30:47;;;;;;;13.93;5.75;;;15.90;75.80;;;;;;11940697;28;20061;-76
2021/04/01 02:36:34;;;;;;;13.48;5.40;;;15.90;76.00;;;;;;11937280;28;20047;-76
2021/04/01 02:42:20;;;;;;;12.10;5.40;;;15.90;76.70;;;;;;11938348;28;21091;-76
2021/04/01 02:48:08;;;;;;;11.15;5.80;;;15.80;76.20;;;;;;11946842;28;20046;-87
2021/04/01 02:53:55;;;;;;;16.33;5.95;;;15.80;76.60;;;;;;11944483;28;20042;-86
2021/04/01 02:59:41;;;;;;;16.02;5.93;;;15.70;76.30;;;;;;11945732;28;20420;-85
2021/04/01 03:05:28;;;;;;;12.15;5.80;;;15.70;76.70;;;;;;11944023;28;20041;-86
2021/04/01 03:11:15;;;;;;;16.27;5.72;;;15.70;76.50;;;;;;11941401;28;20065;-84
2021/04/01 03:17:05;;;;;;;11.15;5.38;;;15.60;76.50;;;;;;11945779;28;20037;-77
2021/04/01 03:22:51;;;;;;;9.40;5.35;;;15.60;76.80;;;;;;11935957;28;20068;-77
2021/04/01 03:28:38;;;;;;;12.70;6.07;;;15.50;77.10;;;;;;11938744;28;20069;-77
2021/04/01 03:34:24;;;;;;;14.43;5.80;;;15.50;76.80;;;;;;11928922;28;20641;-77
2021/04/01 03:40:15;;;;;;;14.07;6.25;;;15.50;77.10;;;;;;11930702;28;20402;-77
2021/04/01 03:46:02;;;;;;;18.17;6.25;;;15.50;77.10;;;;;;11936918;28;20056;-85
2021/04/01 03:51:49;;;;;;;17.50;6.18;;;15.50;77.00;;;;;;11948195;28;20152;-85
2021/04/01 03:57:40;;;;;;;16.05;6.30;;;15.40;77.10;;;;;;11948192;28;20045;-86
2021/04/01 04:03:42;;;;;;;12.80;6.50;;;15.40;78.10;;;;;;11948631;28;20092;-86
2021/04/01 04:09:51;;;;;;;19.30;6.90;;;15.30;77.50;;;;;;11932982;28;20363;-78
2021/04/01 04:15:38;;;;;;;15.57;6.43;;;15.20;77.50;;;;;;11929167;28;20046;-77
2021/04/01 04:21:26;;;;;;;18.77;6.45;;;15.20;77.20;;;;;;11933089;28;20054;-78
2021/04/01 04:27:24;;;;;;;15.10;6.63;;;15.20;77.50;;;;;;11939062;28;20053;-86
2021/04/01 04:33:11;;;;;;;15.63;6.40;;;15.30;77.80;;;;;;11941103;28;20061;-86
2021/04/01 04:38:59;;;;;;;19.38;6.75;;;15.20;77.60;;;;;;11944907;28;20431;-85
2021/04/01 04:44:45;;;;;;;15.85;6.75;;;15.20;77.70;;;;;;11932209;28;20053;-77
2021/04/01 04:50:32;;;;;;;18.77;6.53;;;15.20;77.80;;;;;;11935449;28;20061;-76
2021/04/01 04:56:22;;;;;;;15.55;6.90;;;15.10;77.90;;;;;;11930828;28;20042;-76
2021/04/01 05:08:13;;;;;;;22.40;7.07;;;15.00;78.30;;;;;;11936029;28;20528;-77
2021/04/01 05:14:01;;;;;;;14.85;6.95;;;15.00;78.50;;;;;;11927167;28;20516;-77
2021/04/01 05:19:50;;;;;;;22.40;7.65;;;15.00;78.30;;;;;;11931071;28;20049;-76
2021/04/01 05:25:36;;;;;;;20.55;7.07;;;15.00;78.20;;;;;;11935305;28;20984;-76
2021/04/01 05:31:24;;;;;;;22.45;7.95;;;15.00;78.10;;;;;;11939153;28;20571;-77
2021/04/01 05:37:10;;;;;;;20.45;7.22;;;15.00;78.30;;;;;;11928274;28;20088;-77
2021/04/01 05:42:58;;;;;;;17.30;8.35;;;14.90;78.90;;;;;;11929772;28;20053;-77
2021/04/01 05:49:04;;;;;;;32.60;9.05;;;14.70;79.30;;;;;;11941852;28;20054;-77
2021/04/01 06:01:35;;;;;;;21.10;7.28;;;14.70;79.60;;;;;;11943198;28;20111;-77
2021/04/01 06:07:26;;;;;;;23.48;7.82;;;14.70;79.80;;;;;;11936869;28;20060;-76
2021/04/01 06:13:14;;;;;;;16.02;7.32;;;14.70;80.00;;;;;;11947995;28;20067;-84
2021/04/01 06:19:05;;;;;;;18.92;7.60;;;14.90;79.90;;;;;;11947342;28;20539;-86
2021/04/01 06:24:54;;;;;;;24.38;7.55;;;15.00;79.50;;;;;;11949027;28;20127;-84
2021/04/01 06:30:47;;;;;;;16.58;7.68;;;15.10;79.50;;;;;;11948391;28;20159;-84
2021/04/01 06:36:35;;;;;;;19.42;8.18;;;15.20;79.60;;;;;;11949726;28;20103;-85
2021/04/01 06:42:33;;;;;;;16.38;7.55;;;15.30;79.50;;;;;;11945101;28;20687;-85
2021/04/01 06:48:23;;;;;;;17.88;8.40;;;15.40;79.70;;;;;;11941086;28;20165;-83
2021/04/01 06:54:12;;;;;;;23.45;8.13;;;15.50;79.70;;;;;;11943091;28;20057;-82
2021/04/01 07:00:13;;;;;;;23.52;8.68;;;15.70;79.70;;;;;;11943577;28;20420;-81
2021/04/01 07:06:03;;;;;;;26.98;8.48;;;15.80;79.70;;;;;;11930160;28;20371;-80
2021/04/01 07:11:51;;;;;;;21.60;9.85;;;15.90;79.70;;;;;;11925249;28;20049;-76
2021/04/01 07:17:45;;;;;;;31.92;9.23;;;16.10;79.70;;;;;;11932391;28;20052;-77
2021/04/01 07:24:02;;;;;;;28.35;9.52;;;16.20;79.90;;;;;;11921162;28;20077;-76
2021/04/01 07:36:03;;;;;;;34.42;10.38;;;16.50;79.50;;;;;;11924631;28;20050;-77
2021/04/01 07:48:00;;;;;;;27.75;10.88;;;16.80;79.60;;;;;;11939852;28;20041;-76
2021/04/01 07:53:53;;;;;;;28.65;10.93;;;17.00;80.00;;;;;;11937244;28;20081;-77
2021/04/01 07:59:53;;;;;;;30.30;12.20;;;17.10;79.70;;;;;;11931566;28;20496;-77
2021/04/01 08:05:41;;;;;;;19.35;11.20;;;17.30;79.50;;;;;;11939524;28;20052;-75
2021/04/01 08:11:31;;;;;;;31.75;12.23;;;17.50;79.20;;;;;;11933696;28;20061;-76
2021/04/01 08:17:22;;;;;;;32.53;12.82;;;17.60;79.10;;;;;;11933079;28;20164;-76
2021/04/01 08:23:14;;;;;;;58.53;26.67;;;17.80;79.10;;;;;;11931681;28;20045;-77
2021/04/01 08:29:18;;;;;;;32.25;13.27;;;17.90;78.80;;;;;;11930628;28;20556;-77
2021/04/01 08:35:05;;;;;;;35.95;12.93;;;18.10;78.50;;;;;;11942154;28;20053;-76
2021/04/01 08:40:53;;;;;;;34.78;13.57;;;18.20;78.20;;;;;;11930943;28;20056;-76
2021/04/01 08:46:50;;;;;;;29.58;12.32;;;18.40;77.80;;;;;;11931269;28;20067;-77
2021/04/01 08:53:08;;;;;;;33.03;12.45;;;18.60;79.00;;;;;;11933611;28;20053;-76
2021/04/01 08:59:01;;;;;;;47.95;14.85;;;18.80;79.40;;;;;;11934835;28;20065;-76
2021/04/01 09:04:50;;;;;;;39.77;14.63;;;18.90;79.20;;;;;;11932457;28;21353;-76
2021/04/01 09:10:38;;;;;;;46.75;16.15;;;19.10;77.90;;;;;;11930623;28;20053;-77
2021/04/01 09:16:27;;;;;;;62.17;18.05;;;19.20;77.50;;;;;;11923714;28;20457;-76
2021/04/01 09:22:21;;;;;;;66.50;20.08;;;19.40;77.00;;;;;;11931600;28;20068;-76
2021/04/01 09:28:09;;;;;;;63.55;20.63;;;19.50;76.70;;;;;;11933033;28;20045;-76
2021/04/01 09:33:56;;;;;;;52.83;19.00;;;19.60;75.70;;;;;;11928718;28;20049;-76
2021/04/01 09:39:43;;;;;;;94.18;40.53;;;19.70;74.40;;;;;;11939039;28;20045;-78
2021/04/01 09:45:30;;;;;;;52.45;16.13;;;19.80;70.20;;;;;;11937359;28;20057;-78
2021/04/01 09:51:19;;;;;;;45.65;14.85;;;19.90;70.30;;;;;;11931218;28;20594;-80
2021/04/01 09:57:10;;;;;;;42.72;15.10;;;20.00;69.90;;;;;;11936893;28;20057;-79
2021/04/01 10:03:05;;;;;;;39.88;13.02;;;20.20;69.20;;;;;;11944584;28;20152;-80
2021/04/01 10:08:51;;;;;;;43.42;12.82;;;20.30;67.80;;;;;;11940701;28;20076;-79
2021/04/01 10:14:49;;;;;;;39.75;13.75;;;20.40;67.20;;;;;;11936667;28;20528;-78
2021/04/01 10:20:37;;;;;;;43.47;14.43;;;20.50;67.50;;;;;;11933864;28;20076;-77
2021/04/01 10:26:26;;;;;;;45.75;14.40;;;20.60;66.90;;;;;;11932585;28;20104;-76
2021/04/01 10:32:16;;;;;;;46.88;15.73;;;20.70;64.60;;;;;;11931948;28;20813;-77
2021/04/01 10:38:04;;;;;;;41.47;14.32;;;20.70;65.10;;;;;;11940443;28;20456;-80
2021/04/01 10:43:59;;;;;;;49.38;14.50;;;20.90;64.40;;;;;;11939455;28;20046;-80
2021/04/01 10:49:47;;;;;;;53.72;15.93;;;21.00;62.70;;;;;;11932392;28;20065;-78
2021/04/01 10:55:34;;;;;;;56.88;15.85;;;21.20;64.90;;;;;;11936825;28;20057;-78
2021/04/01 11:01:23;;;;;;;45.90;15.10;;;21.30;63.30;;;;;;11942009;28;20057;-78
2021/04/01 11:07:11;;;;;;;43.53;15.90;;;21.40;59.60;;;;;;11940817;28;20037;-78
2021/04/01 11:12:59;;;;;;;53.28;14.55;;;21.50;59.00;;;;;;11939361;28;20049;-79
2021/04/01 11:18:50;;;;;;;67.03;16.38;;;21.70;59.70;;;;;;11946761;28;20057;-80
2021/04/01 11:24:39;;;;;;;45.35;15.75;;;21.80;59.40;;;;;;11958876;28;20044;-78
2021/04/01 11:30:41;;;;;;;39.72;14.07;;;21.90;58.20;;;;;;11943262;28;20064;-79
2021/04/01 11:36:32;;;;;;;43.85;13.02;;;22.00;58.20;;;;;;11942172;28;20186;-80
2021/04/01 11:42:21;;;;;;;38.95;13.27;;;22.20;57.70;;;;;;11941185;28;20053;-81
2021/04/01 11:48:08;;;;;;;35.83;12.60;;;22.20;56.40;;;;;;11942876;28;20056;-79
2021/04/01 11:53:55;;;;;;;44.38;12.68;;;22.40;57.10;;;;;;11945373;28;20134;-80
2021/04/01 11:59:50;;;;;;;38.80;13.15;;;22.50;56.40;;;;;;11952824;28;20068;-80
2021/04/01 12:05:39;;;;;;;34.63;13.20;;;22.60;55.30;;;;;;11944935;28;20144;-80
2021/04/01 12:11:27;;;;;;;51.10;12.77;;;22.70;54.00;;;;;;11943397;28;20053;-80
2021/04/01 12:17:15;;;;;;;46.38;13.07;;;22.80;55.40;;;;;;11943133;28;20115;-77
2021/04/01 12:23:09;;;;;;;45.67;12.85;;;23.00;55.10;;;;;;11944412;28;20064;-80
2021/04/01 12:28:56;;;;;;;35.20;13.73;;;23.20;53.90;;;;;;11940423;28;20065;-80
2021/04/01 12:34:44;;;;;;;36.30;11.98;;;23.30;53.80;;;;;;11943163;28;20041;-81
2021/04/01 12:40:37;;;;;;;61.15;13.23;;;23.40;53.50;;;;;;11939747;28;20075;-80
2021/04/01 12:46:24;;;;;;;36.05;13.20;;;23.60;54.20;;;;;;11942527;28;20041;-80
2021/04/01 12:52:11;;;;;;;27.27;11.07;;;23.80;51.70;;;;;;11947362;28;20054;-81
2021/04/01 12:57:57;;;;;;;31.73;11.95;;;23.90;52.50;;;;;;11940498;28;20052;-80
2021/04/01 13:03:44;;;;;;;31.67;12.25;;;24.00;51.90;;;;;;11941568;28;20045;-80
2021/04/01 13:09:37;;;;;;;30.05;12.32;;;24.10;51.40;;;;;;11940183;28;20144;-79
2021/04/01 13:15:24;;;;;;;38.72;13.00;;;24.30;51.10;;;;;;11939620;28;20550;-81
2021/04/01 13:27:17;;;;;;;29.10;10.55;;;24.50;50.90;;;;;;11935246;28;20030;-78
2021/04/01 13:33:12;;;;;;;33.15;11.93;;;24.70;50.40;;;;;;11933409;28;20062;-80
2021/04/01 13:38:59;;;;;;;29.77;13.25;;;24.80;50.00;;;;;;11936707;28;20046;-80
2021/04/01 13:44:50;;;;;;;31.10;12.35;;;24.90;48.70;;;;;;11930626;28;20064;-79
2021/04/01 13:50:37;;;;;;;35.47;11.63;;;24.90;47.70;;;;;;11934632;28;20068;-79
2021/04/01 13:56:27;;;;;;;32.55;10.80;;;25.00;49.50;;;;;;11937339;28;20060;-79
2021/04/01 14:14:27;;;;;;;33.95;11.40;;;25.40;48.10;;;;;;11941957;28;20041;-79
2021/04/01 14:20:17;;;;;;;29.45;10.88;;;25.40;46.80;;;;;;11946751;28;20049;-79
2021/04/01 14:26:06;;;;;;;36.38;10.18;;;25.30;46.40;;;;;;11943829;28;20045;-80
2021/04/01 14:31:53;;;;;;;28.35;9.85;;;25.50;45.90;;;;;;11945003;28;20089;-79
2021/04/01 14:37:41;;;;;;;26.48;9.88;;;25.60;47.40;;;;;;11942341;28;20054;-79
2021/04/01 14:43:33;;;;;;;23.98;9.30;;;25.60;46.40;;;;;;11945092;28;20084;-79
2021/04/01 14:49:20;;;;;;;26.27;10.57;;;25.80;46.20;;;;;;11945934;28;20655;-79
2021/04/01 14:55:10;;;;;;;30.27;11.00;;;25.70;47.00;;;;;;11941827;28;20049;-80
2021/04/01 15:00:57;;;;;;;28.85;11.95;;;25.80;47.50;;;;;;11942426;28;20045;-80
2021/04/01 15:06:49;;;;;;;39.47;13.02;;;25.80;47.60;;;;;;11943264;28;20245;-80
2021/04/01 15:12:39;;;;;;;38.97;14.80;;;25.80;46.90;;;;;;11954614;28;20530;-80
2021/04/01 15:18:28;;;;;;;337.02;230.38;;;26.00;48.10;;;;;;11946184;28;20049;-79
2021/04/01 15:24:17;;;;;;;41.88;14.93;;;26.00;47.90;;;;;;11945457;28;20053;-82
2021/04/01 15:30:07;;;;;;;48.38;15.73;;;26.00;47.30;;;;;;11943922;28;20057;-79
2021/04/01 15:35:54;;;;;;;37.22;14.30;;;26.10;47.50;;;;;;11944185;28;20094;-79
2021/04/01 15:41:41;;;;;;;43.05;13.50;;;25.90;47.00;;;;;;11940205;28;20053;-78
2021/04/01 15:47:29;;;;;;;41.75;14.27;;;25.70;46.20;;;;;;11944108;28;20042;-79
2021/04/01 15:53:17;;;;;;;35.42;12.68;;;25.80;47.00;;;;;;11942727;28;20060;-78
2021/04/01 15:59:05;;;;;;;37.35;13.57;;;26.00;46.60;;;;;;11951857;28;20099;-81
2021/04/01 16:05:00;;;;;;;36.92;13.02;;;26.00;45.80;;;;;;11949478;28;20066;-80
2021/04/01 16:10:53;;;;;;;41.67;13.63;;;26.10;46.30;;;;;;11957784;28;20058;-81
2021/04/01 16:16:40;;;;;;;36.88;14.30;;;26.00;45.50;;;;;;11935021;28;20631;-80
2021/04/01 16:22:27;;;;;;;29.00;12.50;;;26.00;45.40;;;;;;11938873;28;20061;-81
2021/04/01 16:28:13;;;;;;;31.30;10.88;;;25.90;45.40;;;;;;11939558;28;20061;-79
2021/04/01 16:34:01;;;;;;;35.72;13.57;;;26.00;45.50;;;;;;11936558;28;20057;-81
2021/04/01 16:39:51;;;;;;;29.50;12.00;;;26.00;44.90;;;;;;11939725;28;20060;-78
2021/04/01 16:45:37;;;;;;;27.75;11.15;;;26.00;44.20;;;;;;11938598;28;20049;-79
2021/04/01 16:51:28;;;;;;;32.45;11.88;;;26.10;44.00;;;;;;11936862;28;20064;-75
2021/04/01 16:57:19;;;;;;;35.80;11.68;;;26.30;42.90;;;;;;11929746;28;20112;-76
2021/04/01 17:03:06;;;;;;;31.48;11.82;;;26.40;42.50;;;;;;11904361;28;20411;-76
2021/04/01 17:08:52;;;;;;;36.75;14.23;;;26.20;43.50;;;;;;11928622;28;20056;-76
2021/04/01 17:14:40;;;;;;;31.15;13.50;;;26.00;44.90;;;;;;11931690;28;20046;-76
2021/04/01 17:20:27;;;;;;;43.42;14.55;;;25.80;46.20;;;;;;11929262;28;20084;-77
2021/04/01 17:26:14;;;;;;;46.58;17.65;;;25.60;47.30;;;;;;11920319;28;20052;-77
2021/04/01 17:32:02;;;;;;;44.15;16.75;;;25.20;48.00;;;;;;11930013;28;20057;-77
2021/04/01 17:37:49;;;;;;;86.80;31.85;;;24.80;49.30;;;;;;11929832;28;20828;-76
2021/04/01 17:43:37;;;;;;;90.43;34.97;;;24.30;57.10;;;;;;11926502;28;20155;-77
2021/04/01 17:49:24;;;;;;;89.43;36.47;;;24.00;59.30;;;;;;11928247;28;20057;-76
2021/04/01 17:55:13;;;;;;;92.13;38.83;;;23.80;60.20;;;;;;11923240;28;20053;-76
2021/04/01 18:01:04;;;;;;;96.90;40.75;;;23.50;62.10;;;;;;11930727;28;20053;-76
2021/04/01 18:25:17;;;;;;;104.50;41.35;;;22.80;64.40;;;;;;11706239;29;20111;-78
2021/04/01 18:31:10;;;;;;;96.25;40.10;;;22.70;64.50;;;;;;11705511;29;20063;-76
2021/04/01 18:37:04;;;;;;;102.95;37.80;;;22.50;64.60;;;;;;11708471;29;20060;-77
2021/04/01 18:42:53;;;;;;;108.65;37.65;;;22.30;64.20;;;;;;11707781;29;20499;-76
2021/04/01 18:48:42;;;;;;;96.72;36.17;;;22.30;64.50;;;;;;11773493;28;20143;-75
2021/04/01 18:54:33;;;;;;;98.80;36.50;;;22.20;64.50;;;;;;11826910;28;20045;-78
2021/04/01 19:00:24;;;;;;;100.50;37.05;;;22.20;64.60;;;;;;11880299;28;20057;-77
2021/04/01 19:06:17;;;;;;;111.43;39.72;;;22.10;64.80;;;;;;11936982;28;20050;-76
2021/04/01 19:12:32;;;;;;;110.80;43.87;;;22.00;65.60;;;;;;11931082;28;20057;-77
2021/04/01 19:24:28;;;;;;;103.32;43.85;;;21.90;66.90;;;;;;11928915;28;20049;-76
2021/04/01 19:30:18;;;;;;;94.22;46.55;;;21.80;67.70;;;;;;11931893;28;20546;-76
2021/04/01 19:36:08;;;;;;;122.65;53.28;;;21.70;69.00;;;;;;11937377;28;20077;-76
2021/04/01 19:41:56;;;;;;;126.35;62.78;;;21.60;70.60;;;;;;11929511;28;20081;-76
2021/04/01 19:47:42;;;;;;;122.60;62.45;;;21.50;73.10;;;;;;11929569;28;20104;-75
2021/04/01 19:53:30;;;;;;;126.43;61.75;;;21.40;73.90;;;;;;11922682;28;20069;-75
2021/04/01 19:59:18;;;;;;;132.98;62.45;;;21.30;75.10;;;;;;11932895;28;20046;-74
2021/04/01 20:05:05;;;;;;;118.68;58.47;;;21.10;76.10;;;;;;11936755;28;20069;-75
2021/04/01 20:10:53;;;;;;;119.10;56.42;;;21.10;76.00;;;;;;11938463;28;20045;-75
2021/04/01 20:16:39;;;;;;;117.43;53.67;;;21.00;76.30;;;;;;11934840;28;20045;-74
2021/04/01 20:22:26;;;;;;;107.53;47.97;;;20.90;76.40;;;;;;11936839;28;20053;-76
2021/04/01 20:28:13;;;;;;;102.97;47.42;;;20.70;77.00;;;;;;11935032;28;21014;-75
2021/04/01 20:34:00;;;;;;;97.07;43.80;;;20.60;77.00;;;;;;11932286;28;20058;-76
2021/04/01 20:39:46;;;;;;;99.55;42.28;;;20.50;77.30;;;;;;11932030;28;20564;-76
2021/04/01 20:45:34;;;;;;;91.97;39.67;;;20.30;77.40;;;;;;11932819;28;20048;-76
2021/04/01 20:51:21;;;;;;;92.53;39.95;;;20.40;77.00;;;;;;11933566;28;20528;-75
2021/04/01 20:57:08;;;;;;;105.32;40.72;;;20.30;77.80;;;;;;11931031;28;20057;-75
2021/04/01 21:02:56;;;;;;;95.07;39.85;;;20.10;77.60;;;;;;11929241;28;20065;-75
2021/04/01 21:08:43;;;;;;;101.40;42.88;;;20.10;77.50;;;;;;11930026;28;20053;-75
2021/04/01 21:14:29;;;;;;;100.18;41.00;;;20.10;77.50;;;;;;11933615;28;20049;-75
2021/04/01 21:20:18;;;;;;;105.32;42.50;;;19.90;77.90;;;;;;11931990;28;20049;-75
2021/04/01 21:26:05;;;;;;;107.97;44.10;;;19.90;77.70;;;;;;11932973;28;20051;-74
2021/04/01 21:31:51;;;;;;;96.80;41.05;;;19.80;77.70;;;;;;11926785;28;20498;-75
2021/04/01 21:37:40;;;;;;;94.88;39.47;;;19.60;77.80;;;;;;11932409;28;20421;-75
2021/04/01 21:43:27;;;;;;;85.78;37.10;;;19.60;77.80;;;;;;11931722;28;20068;-75
2021/04/01 21:49:13;;;;;;;85.07;35.97;;;19.50;77.60;;;;;;11933317;28;20041;-75
2021/04/01 21:55:00;;;;;;;83.93;33.42;;;19.50;77.60;;;;;;11933953;28;20057;-75
2021/04/01 22:00:49;;;;;;;81.82;32.97;;;19.40;77.60;;;;;;11931490;28;20064;-75
2021/04/01 22:06:35;;;;;;;88.97;30.55;;;19.50;77.40;;;;;;11929017;28;20111;-75
2021/04/01 22:12:22;;;;;;;68.75;29.35;;;19.40;77.10;;;;;;11930159;28;20057;-75
2021/04/01 22:18:12;;;;;;;72.57;27.50;;;19.20;77.50;;;;;;11933656;28;20769;-75
2021/04/01 22:23:59;;;;;;;65.65;25.88;;;19.20;77.30;;;;;;11933192;28;20049;-75
2021/04/01 22:29:46;;;;;;;64.18;24.83;;;18.90;77.70;;;;;;11932694;28;20065;-75
2021/04/01 22:35:34;;;;;;;65.25;24.80;;;18.90;77.90;;;;;;11940074;28;20053;-74
2021/04/01 22:41:22;;;;;;;58.42;23.33;;;18.70;78.90;;;;;;11935006;28;20420;-74
2021/04/01 22:47:09;;;;;;;61.20;22.10;;;18.60;78.30;;;;;;11936097;28;20054;-75
2021/04/01 22:52:55;;;;;;;64.72;21.25;;;18.70;78.20;;;;;;11935791;28;20524;-75
2021/04/01 22:58:45;;;;;;;57.50;19.02;;;18.30;78.50;;;;;;11937625;28;20060;-75
2021/04/01 23:04:32;;;;;;;58.35;18.38;;;18.20;78.90;;;;;;11937950;28;20505;-75
2021/04/01 23:10:19;;;;;;;52.38;17.50;;;18.20;79.10;;;;;;11938707;28;20064;-75
2021/04/01 23:16:06;;;;;;;46.08;16.67;;;18.10;78.90;;;;;;11939163;28;20535;-74
2021/04/01 23:21:53;;;;;;;43.05;15.25;;;18.20;78.40;;;;;;11938523;28;20080;-75
2021/04/01 23:27:41;;;;;;;44.90;15.27;;;18.00;78.60;;;;;;11935923;28;20056;-75
2021/04/01 23:33:27;;;;;;;44.75;15.35;;;17.80;78.70;;;;;;11938589;28;20057;-74
2021/04/01 23:39:15;;;;;;;48.25;13.98;;;17.90;78.40;;;;;;11931224;28;20042;-75
2021/04/01 23:45:01;;;;;;;48.00;14.52;;;17.80;78.30;;;;;;11933316;28;20088;-74
2021/04/01 23:50:50;;;;;;;38.22;13.32;;;17.70;78.10;;;;;;11936792;28;20057;-75
2021/04/01 23:56:37;;;;;;;38.20;13.40;;;17.60;78.40;;;;;;11935931;28;20057;-75
